Portada
METAR-TAF:

METAR-TAF

Aeropuertos :

Redstone Arsenal, Alabama, Estados Unidos

latitud: 34-40-43N, longitud: 086-41-05W, altitud: 209 m

Observación

El informe se hizo hace 45 minutos, a las 21:58 UTC
Viento 11 kt del oeste con ráfagas de 17 kt
Temperatura 9°C
Humedad 66%
Presión 1014 hPa
Visibilidad: 16.1 km
Cielo nuboso a una altura de 4700 ft

METAR: KHUA 242158Z AUTO 28011G17KT 10SM BKN047 09/03 A2993 RMK AO2 SLP138 T00870026

Hora: 16:43 (22:43 UTC)


TAF: falta

Observaciones y pronósticos meteorológicos de más de 4000 aeropuertos (mensajes METAR y TAF).

Los puntos amarillos y rojos representan las estaciones disponibles.

Ponga el ratón en el punto deseado para ver el nombre de la estación.

Haga clic para ver las observaciones y los pronósticos meteorológicos.

Para cambiar el mapa : haga clic en los botones verdes con una cruz de color negro para hacer un zoom, en el botón verde con un guión para alejar o en las flechas verdes para mapas adyacentes.


METAR-TAF: